createdAt,value
2023-03-10T00:02:11.446Z,147.98
2023-03-10T00:05:20.042Z,175.78
2023-03-10T00:08:27.181Z,209.18
2023-03-10T00:11:37.111Z,240.41
2023-03-10T00:14:43.502Z,238.47
2023-03-10T00:17:55.888Z,237.66
2023-03-10T00:21:01.982Z,205.35
2023-03-10T00:24:09.303Z,220.63
2023-03-10T00:27:17.883Z,213.39
2023-03-10T00:30:24.989Z,188.74
2023-03-10T00:33:31.062Z,126.39
2023-03-10T00:36:38.167Z,91.97
2023-03-10T00:39:44.138Z,81.48
2023-03-10T00:43:00.969Z,79.60
2023-03-10T00:46:08.137Z,73.41
2023-03-10T00:49:19.936Z,65.82
2023-03-10T00:52:25.856Z,61.08
2023-03-10T00:55:32.731Z,60.42
2023-03-10T00:58:42.059Z,54.74
2023-03-10T01:01:48.896Z,55.00
2023-03-10T01:04:55.291Z,54.79
2023-03-10T01:08:01.981Z,50.59
2023-03-10T01:11:08.419Z,53.19
2023-03-10T01:14:20.654Z,46.40
2023-03-10T01:17:27.785Z,44.10
2023-03-10T01:20:38.212Z,43.90
2023-03-10T01:23:44.169Z,49.29
2023-03-10T01:26:51.069Z,46.11
2023-03-10T01:29:59.777Z,43.21
2023-03-10T01:33:06.747Z,43.50
2023-03-10T01:36:16.150Z,44.90
2023-03-10T01:39:25.524Z,37.97
2023-03-10T01:42:31.567Z,33.19
2023-03-10T01:46:31.911Z,26.31
2023-03-10T01:49:48.479Z,32.69
2023-03-10T01:52:58.698Z,36.42
2023-03-10T01:56:09.740Z,51.06
2023-03-10T01:59:18.722Z,71.93
2023-03-10T02:02:25.373Z,83.77
2023-03-10T02:05:35.813Z,78.92
2023-03-10T02:08:48.654Z,69.14
2023-03-10T02:11:55.983Z,65.28
2023-03-10T02:15:02.336Z,65.90
2023-03-10T02:18:14.876Z,74.84
2023-03-10T02:21:46.215Z,76.95
2023-03-10T02:25:02.710Z,73.86
2023-03-10T02:28:12.097Z,68.45
2023-03-10T02:31:22.421Z,49.09
2023-03-10T02:34:31.547Z,37.82
2023-03-10T02:37:40.185Z,31.78
2023-03-10T02:40:50.978Z,32.03
2023-03-10T02:44:11.025Z,32.86
2023-03-10T02:47:17.375Z,32.06
2023-03-10T02:50:30.204Z,35.78
2023-03-10T02:53:36.236Z,35.42
2023-03-10T02:56:43.916Z,35.81
2023-03-10T02:59:53.379Z,39.26
2023-03-10T03:03:01.156Z,42.43
2023-03-10T03:06:08.600Z,45.53
2023-03-10T03:09:15.830Z,49.51
2023-03-10T03:12:23.238Z,51.11
2023-03-10T03:15:33.837Z,54.10
2023-03-10T03:18:41.468Z,51.87
2023-03-10T03:21:51.260Z,55.06
2023-03-10T03:24:57.342Z,53.15
2023-03-10T03:28:04.312Z,55.67
2023-03-10T03:31:18.762Z,61.00
2023-03-10T03:35:25.279Z,69.56
2023-03-10T03:38:32.950Z,72.42
2023-03-10T03:41:42.277Z,67.74
2023-03-10T03:44:50.124Z,67.70
2023-03-10T03:48:00.494Z,86.71
2023-03-10T03:51:09.548Z,95.82
2023-03-10T03:54:20.329Z,81.48
2023-03-10T03:57:29.342Z,66.05
2023-03-10T04:00:40.364Z,60.61
2023-03-10T04:03:51.507Z,63.25
2023-03-10T04:06:58.722Z,63.21
2023-03-10T04:10:05.490Z,61.80
2023-03-10T04:13:12.516Z,63.64
2023-03-10T04:16:18.718Z,70.92
2023-03-10T04:19:30.389Z,96.82
2023-03-10T04:22:45.133Z,115.02
2023-03-10T04:25:52.627Z,113.52
2023-03-10T04:28:59.741Z,103.94
2023-03-10T04:32:09.508Z,109.59
2023-03-10T04:35:22.172Z,117.18
2023-03-10T04:38:29.018Z,147.02
2023-03-10T04:41:35.201Z,157.11
2023-03-10T04:44:42.132Z,166.31
2023-03-10T04:47:48.116Z,163.56
2023-03-10T04:51:05.544Z,123.52
2023-03-10T04:54:16.139Z,124.69
2023-03-10T04:57:24.751Z,135.91
2023-03-10T05:00:32.448Z,147.28
2023-03-10T05:03:39.690Z,142.45
2023-03-10T05:06:54.070Z,141.19
2023-03-10T05:10:06.253Z,132.85
2023-03-10T05:13:13.147Z,141.67
2023-03-10T05:16:24.643Z,156.93
2023-03-10T05:19:32.592Z,170.13
2023-03-10T05:22:43.309Z,173.34
2023-03-10T05:25:52.696Z,162.32
2023-03-10T05:29:01.575Z,138.00
2023-03-10T05:32:17.599Z,171.66
2023-03-10T05:35:27.324Z,176.95
2023-03-10T05:38:39.518Z,152.22
2023-03-10T05:41:51.625Z,134.16
2023-03-10T05:44:58.506Z,189.52
2023-03-10T05:48:05.782Z,262.58
2023-03-10T05:51:15.494Z,242.84
2023-03-10T05:54:25.749Z,221.91
2023-03-10T05:57:32.189Z,222.94
2023-03-10T06:00:39.265Z,209.54
2023-03-10T06:03:52.211Z,133.68
2023-03-10T06:07:00.815Z,91.75
2023-03-10T06:10:30.114Z,66.25
2023-03-10T06:13:36.969Z,53.90
2023-03-10T06:16:45.134Z,51.85
2023-03-10T06:19:52.635Z,58.42
2023-03-10T06:22:59.121Z,66.37
2023-03-10T06:26:12.309Z,71.60
2023-03-10T06:29:18.196Z,77.29
2023-03-10T06:32:25.145Z,70.35
2023-03-10T06:35:32.404Z,68.94
2023-03-10T06:38:39.412Z,65.32
2023-03-10T06:41:48.040Z,67.58
2023-03-10T06:44:57.932Z,85.22
2023-03-10T06:48:03.740Z,89.42
2023-03-10T06:51:22.376Z,79.17
2023-03-10T06:54:28.701Z,77.37
2023-03-10T06:57:40.255Z,70.23
2023-03-10T07:00:49.454Z,77.40
2023-03-10T07:03:57.112Z,89.22
2023-03-10T07:07:15.229Z,81.97
2023-03-10T07:10:23.395Z,55.53
2023-03-10T07:13:31.897Z,52.36
2023-03-10T07:16:38.816Z,51.77
2023-03-10T07:19:47.865Z,56.19
2023-03-10T07:22:55.375Z,67.18
2023-03-10T07:26:01.618Z,60.26
2023-03-10T07:29:15.920Z,59.96
2023-03-10T07:32:21.754Z,60.72
2023-03-10T07:35:28.858Z,59.38
2023-03-10T07:38:35.832Z,51.52
2023-03-10T07:41:42.792Z,45.02
2023-03-10T07:44:53.648Z,43.81
2023-03-10T07:48:00.441Z,45.05
2023-03-10T07:51:06.806Z,44.30
2023-03-10T07:54:16.248Z,38.33
2023-03-10T07:57:22.241Z,43.03
2023-03-10T08:00:31.805Z,37.45
2023-03-10T08:03:38.392Z,35.11
2023-03-10T08:06:48.069Z,35.22
2023-03-10T08:09:54.592Z,34.28
2023-03-10T08:13:01.530Z,28.24
2023-03-10T08:16:11.873Z,25.40
2023-03-10T08:19:18.722Z,27.94
2023-03-10T08:22:24.601Z,32.35
2023-03-10T08:25:32.005Z,28.10
2023-03-10T08:28:39.060Z,30.99
2023-03-10T08:31:49.347Z,31.94
2023-03-10T08:34:55.252Z,25.28
2023-03-10T08:38:02.068Z,25.47
2023-03-10T08:41:21.422Z,28.39
2023-03-10T08:44:28.409Z,21.23
2023-03-10T08:47:37.183Z,24.15
2023-03-10T08:50:44.349Z,26.25
2023-03-10T08:53:56.349Z,22.72
2023-03-10T08:57:03.211Z,21.20
2023-03-10T09:00:14.847Z,24.38
2023-03-10T09:03:25.933Z,22.61
2023-03-10T09:06:33.688Z,27.07
2023-03-10T09:09:40.498Z,27.10
2023-03-10T09:12:46.430Z,23.55
2023-03-10T09:15:53.329Z,27.26
2023-03-10T09:19:08.320Z,27.06
2023-03-10T09:22:15.112Z,26.09
2023-03-10T09:25:21.068Z,24.38
2023-03-10T09:28:28.013Z,26.35
2023-03-10T09:31:38.437Z,26.98
2023-03-10T09:34:48.388Z,29.59
2023-03-10T09:37:54.286Z,31.77
2023-03-10T09:41:25.350Z,30.59
2023-03-10T09:44:43.650Z,30.73
2023-03-10T09:48:14.628Z,28.57
2023-03-10T09:51:28.732Z,31.99
2023-03-10T09:54:55.701Z,32.81
2023-03-10T09:58:03.978Z,31.55
2023-03-10T10:01:21.595Z,33.46
2023-03-10T10:04:40.903Z,33.89
2023-03-10T10:07:57.873Z,34.56
2023-03-10T10:11:06.537Z,35.62
2023-03-10T10:14:28.815Z,34.35
2023-03-10T10:18:02.934Z,34.86
2023-03-10T10:21:41.771Z,33.62
2023-03-10T10:25:19.195Z,33.76
2023-03-10T10:28:42.362Z,31.52
2023-03-10T10:32:09.083Z,34.71
2023-03-10T10:35:26.238Z,33.69
2023-03-10T10:38:36.330Z,30.68
2023-03-10T10:41:45.664Z,30.50
2023-03-10T10:44:55.776Z,35.09
2023-03-10T10:48:02.867Z,33.68
2023-03-10T10:51:27.461Z,33.88
2023-03-10T10:54:43.941Z,39.39
2023-03-10T10:58:01.715Z,46.15
2023-03-10T11:01:12.691Z,41.73
2023-03-10T11:04:18.793Z,35.75
2023-03-10T11:07:30.138Z,34.80
2023-03-10T11:10:38.300Z,42.15
2023-03-10T11:14:08.643Z,45.71
2023-03-10T11:17:25.505Z,64.19
2023-03-10T11:20:47.012Z,92.51
2023-03-10T11:24:12.658Z,119.55
2023-03-10T11:27:34.263Z,113.45
2023-03-10T11:30:58.408Z,100.44
2023-03-10T11:34:25.920Z,125.73
2023-03-10T11:37:45.869Z,68.69
2023-03-10T11:40:58.445Z,54.61
2023-03-10T11:44:24.169Z,49.17
2023-03-10T11:47:54.631Z,48.36
2023-03-10T11:51:04.469Z,51.17
2023-03-10T11:54:25.685Z,54.95
2023-03-10T11:57:42.806Z,64.99
2023-03-10T12:00:53.982Z,67.81
2023-03-10T12:04:19.442Z,63.38
2023-03-10T12:07:32.816Z,55.90
2023-03-10T12:10:45.568Z,74.89
2023-03-10T12:13:59.710Z,79.08
2023-03-10T12:17:08.643Z,80.65
2023-03-10T12:20:37.214Z,122.14
2023-03-10T12:23:45.834Z,81.92
2023-03-10T12:27:07.573Z,68.53
2023-03-10T12:30:51.339Z,75.66
2023-03-10T12:34:18.904Z,63.92
2023-03-10T12:37:28.379Z,70.94
2023-03-10T12:40:55.203Z,75.98
2023-03-10T12:44:03.472Z,83.75
2023-03-10T12:47:46.323Z,98.50
2023-03-10T12:51:03.118Z,84.05
2023-03-10T12:54:57.401Z,75.77
2023-03-10T12:58:25.584Z,82.42
2023-03-10T13:01:55.198Z,84.45
2023-03-10T13:05:08.351Z,122.71
2023-03-10T13:08:27.435Z,112.83
2023-03-10T13:11:44.150Z,124.33
2023-03-10T13:14:59.153Z,134.81
2023-03-10T13:18:22.620Z,115.49
2023-03-10T13:21:34.385Z,103.05
2023-03-10T13:24:42.532Z,144.34
2023-03-10T13:27:52.835Z,111.72
2023-03-10T13:31:26.538Z,87.70
2023-03-10T13:34:36.990Z,63.58
2023-03-10T13:37:42.927Z,61.77
2023-03-10T13:40:52.823Z,67.15
2023-03-10T13:44:01.663Z,61.31
2023-03-10T13:47:20.650Z,61.68
2023-03-10T13:50:28.196Z,71.78
2023-03-10T13:53:36.462Z,67.90
2023-03-10T13:56:46.477Z,51.09
2023-03-10T14:00:00.003Z,54.44
2023-03-10T14:03:06.670Z,59.73
2023-03-10T14:06:17.349Z,78.28
2023-03-10T14:09:26.286Z,56.14
2023-03-10T14:12:42.846Z,96.14
2023-03-10T14:15:59.252Z,98.47
2023-03-10T14:19:06.057Z,104.89
2023-03-10T14:22:32.324Z,127.89
2023-03-10T14:25:44.755Z,106.84
2023-03-10T14:28:50.671Z,132.86
2023-03-10T14:32:00.149Z,113.73
2023-03-10T14:35:11.888Z,124.48
2023-03-10T14:38:20.149Z,107.07
2023-03-10T14:41:28.544Z,91.76
2023-03-10T14:44:36.887Z,73.76
2023-03-10T14:47:45.841Z,113.90
2023-03-10T14:50:56.584Z,127.32
2023-03-10T14:54:03.026Z,106.78
2023-03-10T14:57:10.264Z,106.16
2023-03-10T15:00:21.642Z,88.73
2023-03-10T15:03:31.454Z,101.66
2023-03-10T15:06:37.786Z,98.74
2023-03-10T15:09:44.744Z,103.84
2023-03-10T15:12:54.116Z,105.58
2023-03-10T15:16:01.733Z,101.46
2023-03-10T15:19:15.389Z,75.59
2023-03-10T15:22:22.337Z,71.81
2023-03-10T15:25:28.711Z,67.44
2023-03-10T15:28:36.400Z,71.97
2023-03-10T15:31:43.517Z,83.33
2023-03-10T15:34:53.301Z,85.52
2023-03-10T15:38:02.875Z,83.25
2023-03-10T15:41:10.578Z,87.69
2023-03-10T15:44:16.724Z,79.83
2023-03-10T15:47:23.376Z,83.06
2023-03-10T15:50:31.966Z,96.48
2023-03-10T15:53:53.501Z,89.53
2023-03-10T15:56:59.503Z,120.30
2023-03-10T16:00:07.214Z,108.17
2023-03-10T16:03:18.029Z,96.94
2023-03-10T16:06:31.890Z,87.63
2023-03-10T16:09:37.924Z,91.53
2023-03-10T16:12:46.482Z,110.42
2023-03-10T16:15:52.997Z,88.99
2023-03-10T16:18:59.960Z,87.60
2023-03-10T16:22:10.659Z,93.11
2023-03-10T16:25:21.572Z,128.25
2023-03-10T16:28:27.641Z,128.55
2023-03-10T16:31:35.380Z,120.63
2023-03-10T16:34:41.511Z,137.19
2023-03-10T16:37:50.940Z,147.17
2023-03-10T16:40:58.146Z,153.89
2023-03-10T16:44:08.025Z,151.35
2023-03-10T16:47:15.725Z,196.79
2023-03-10T16:50:24.367Z,279.82
2023-03-10T16:53:33.033Z,306.47
2023-03-10T16:56:44.165Z,331.41
2023-03-10T16:59:56.472Z,282.96
2023-03-10T17:03:04.513Z,211.13
2023-03-10T17:06:13.516Z,143.30
2023-03-10T17:09:23.117Z,91.03
2023-03-10T17:12:29.203Z,93.71
2023-03-10T17:15:36.009Z,90.80
2023-03-10T17:18:42.149Z,109.48
2023-03-10T17:21:52.684Z,110.83
2023-03-10T17:25:02.182Z,102.94
2023-03-10T17:28:11.383Z,99.12
2023-03-10T17:31:20.907Z,99.86
2023-03-10T17:34:29.587Z,96.19
2023-03-10T17:37:35.631Z,112.48
2023-03-10T17:40:46.364Z,124.83
2023-03-10T17:43:53.044Z,111.42
2023-03-10T17:47:00.001Z,97.08
2023-03-10T17:50:06.774Z,91.43
2023-03-10T17:53:16.515Z,83.07
2023-03-10T17:56:25.209Z,76.26
2023-03-10T17:59:33.016Z,97.10
2023-03-10T18:02:39.042Z,128.79
2023-03-10T18:05:47.841Z,153.36
2023-03-10T18:08:56.464Z,177.57
2023-03-10T18:12:06.461Z,163.42
2023-03-10T18:15:15.359Z,186.14
2023-03-10T18:18:22.242Z,200.86
2023-03-10T18:21:29.828Z,172.67
2023-03-10T18:24:36.677Z,155.60
2023-03-10T18:27:46.115Z,144.02
2023-03-10T18:30:55.013Z,163.55
2023-03-10T18:34:01.340Z,144.28
2023-03-10T18:37:08.390Z,135.47
2023-03-10T18:40:19.740Z,129.45
2023-03-10T18:43:32.315Z,141.76
2023-03-10T18:46:38.409Z,151.89
2023-03-10T18:49:45.574Z,237.38
2023-03-10T18:52:51.633Z,175.69
2023-03-10T18:56:03.156Z,123.46
2023-03-10T18:59:13.498Z,127.41
2023-03-10T19:02:20.619Z,130.16
2023-03-10T19:05:26.677Z,125.71
2023-03-10T19:08:34.542Z,141.16
2023-03-10T19:11:41.822Z,142.70
2023-03-10T19:14:51.326Z,165.41
2023-03-10T19:17:59.006Z,134.50
2023-03-10T19:21:09.764Z,155.91
2023-03-10T19:24:15.826Z,196.16
2023-03-10T19:27:22.852Z,196.29
2023-03-10T19:30:32.041Z,176.08
2023-03-10T19:33:40.006Z,153.75
2023-03-10T19:36:46.126Z,162.57
2023-03-10T19:39:53.157Z,200.76
2023-03-10T19:42:59.959Z,173.35
2023-03-10T19:46:12.927Z,162.49
2023-03-10T19:49:19.385Z,136.08
2023-03-10T19:52:26.859Z,133.62
2023-03-10T19:55:33.353Z,135.82
2023-03-10T19:58:40.772Z,142.83
2023-03-10T20:01:49.753Z,161.60
2023-03-10T20:04:56.738Z,164.68
2023-03-10T20:08:02.959Z,177.38
2023-03-10T20:11:13.739Z,192.55
2023-03-10T20:14:19.952Z,170.67
2023-03-10T20:17:30.823Z,213.60
2023-03-10T20:20:37.423Z,191.47
2023-03-10T20:23:47.780Z,183.02
2023-03-10T20:26:53.879Z,167.69
2023-03-10T20:30:00.865Z,190.49
2023-03-10T20:33:11.915Z,201.68
2023-03-10T20:36:18.933Z,192.52
2023-03-10T20:39:24.951Z,174.92
2023-03-10T20:42:31.878Z,146.74
2023-03-10T20:45:39.009Z,140.52
2023-03-10T20:48:48.876Z,137.98
2023-03-10T20:51:55.141Z,135.44
2023-03-10T20:55:02.200Z,118.40
2023-03-10T20:58:09.173Z,127.09
2023-03-10T21:01:19.704Z,128.80
2023-03-10T21:04:28.557Z,125.80
2023-03-10T21:07:35.947Z,124.93
2023-03-10T21:10:44.983Z,123.83
2023-03-10T21:13:53.189Z,125.31
2023-03-10T21:17:00.241Z,122.84
2023-03-10T21:20:13.760Z,121.33
2023-03-10T21:23:19.857Z,124.10
2023-03-10T21:26:27.211Z,113.17
2023-03-10T21:29:33.337Z,104.59
2023-03-10T21:32:41.161Z,96.66
2023-03-10T21:35:49.921Z,94.86
2023-03-10T21:38:57.131Z,93.49
2023-03-10T21:42:03.311Z,95.89
2023-03-10T21:45:14.643Z,97.19
2023-03-10T21:48:20.772Z,114.24
2023-03-10T21:51:33.813Z,124.74
2023-03-10T21:54:40.181Z,122.61
2023-03-10T21:57:46.963Z,117.99
2023-03-10T22:00:56.054Z,129.88
2023-03-10T22:04:03.046Z,127.59
2023-03-10T22:07:11.684Z,119.14
2023-03-10T22:10:19.891Z,117.38
2023-03-10T22:13:25.936Z,115.56
2023-03-10T22:16:33.128Z,112.08
2023-03-10T22:19:39.209Z,109.19
2023-03-10T22:22:48.788Z,106.26
2023-03-10T22:25:54.817Z,106.89
2023-03-10T22:29:01.616Z,113.44
2023-03-10T22:32:08.958Z,119.93
2023-03-10T22:35:16.720Z,115.43
2023-03-10T22:38:25.595Z,125.64
2023-03-10T22:41:32.312Z,134.59
2023-03-10T22:44:39.954Z,126.50
2023-03-10T22:47:47.046Z,128.55
2023-03-10T22:50:53.403Z,129.61
2023-03-10T22:54:03.265Z,127.55
2023-03-10T22:57:09.939Z,130.52
2023-03-10T23:00:22.606Z,135.78
2023-03-10T23:03:28.757Z,144.30
2023-03-10T23:06:36.248Z,141.69
2023-03-10T23:09:46.208Z,148.83
2023-03-10T23:12:54.733Z,149.34
2023-03-10T23:16:01.178Z,147.22
2023-03-10T23:19:08.961Z,151.17
2023-03-10T23:22:14.777Z,154.57
2023-03-10T23:25:27.615Z,167.36
2023-03-10T23:28:33.712Z,193.70
2023-03-10T23:31:40.561Z,214.02
2023-03-10T23:34:46.741Z,234.62
2023-03-10T23:37:54.266Z,215.00
2023-03-10T23:41:02.832Z,168.37
2023-03-10T23:44:09.983Z,170.02
2023-03-10T23:47:18.791Z,172.74
2023-03-10T23:50:30.302Z,148.43
2023-03-10T23:53:36.399Z,134.06
2023-03-10T23:56:45.835Z,148.67
2023-03-10T23:59:52.042Z,140.97
